createdAt,value
2019-02-26T00:00:29.534Z,43.9
2019-02-26T00:01:05.744Z,43.8
2019-02-26T00:02:06.277Z,43.8
2019-02-26T00:03:06.664Z,43.8
2019-02-26T00:03:39.506Z,43.8
2019-02-26T00:04:39.584Z,43.8
2019-02-26T00:05:33.991Z,43.8
2019-02-26T00:06:08.214Z,43.7
2019-02-26T00:07:03.769Z,43.7
2019-02-26T00:08:04.696Z,43.7
2019-02-26T00:08:38.556Z,43.7
2019-02-26T00:09:38.550Z,43.7
2019-02-26T00:10:17.154Z,43.7
2019-02-26T00:11:14.473Z,43.7
2019-02-26T00:11:57.004Z,43.6
2019-02-26T00:12:47.359Z,43.6
2019-02-26T00:13:41.478Z,43.6
2019-02-26T00:14:34.093Z,43.6
2019-02-26T00:15:17.616Z,43.6
2019-02-26T00:16:23.089Z,43.6
2019-02-26T00:16:57.356Z,43.5
2019-02-26T00:17:56.001Z,43.5
2019-02-26T00:18:37.737Z,43.5
2019-02-26T00:19:27.323Z,43.5
2019-02-26T00:20:22.251Z,43.5
2019-02-26T00:21:09.747Z,43.4
2019-02-26T00:21:59.267Z,43.4
2019-02-26T00:22:47.827Z,43.4
2019-02-26T00:23:38.456Z,43.4
2019-02-26T00:24:42.489Z,43.4
2019-02-26T00:25:25.034Z,43.4
2019-02-26T00:26:14.953Z,43.4
2019-02-26T00:27:09.614Z,43.4
2019-02-26T00:27:59.620Z,43.4
2019-02-26T00:28:49.130Z,43.3
2019-02-26T00:29:35.538Z,43.3
2019-02-26T00:30:23.280Z,43.3
2019-02-26T00:31:10.593Z,43.3
2019-02-26T00:32:02.060Z,43.3
2019-02-26T00:32:48.503Z,43.3
2019-02-26T00:33:38.283Z,43.3
2019-02-26T00:34:32.861Z,43.3
2019-02-26T00:35:31.115Z,43.2
2019-02-26T00:36:18.328Z,43.2
2019-02-26T00:37:09.450Z,43.2
2019-02-26T00:37:59.404Z,43.2
2019-02-26T00:38:48.260Z,43.2
2019-02-26T00:39:35.824Z,43.2
2019-02-26T00:40:24.315Z,43.1
2019-02-26T00:41:11.390Z,43.1
2019-02-26T00:42:08.345Z,43.1
2019-02-26T00:43:07.677Z,43.1
2019-02-26T00:43:41.184Z,43.1
2019-02-26T00:44:40.614Z,43.1
2019-02-26T00:45:39.035Z,43.1
2019-02-26T00:46:13.919Z,43
2019-02-26T00:47:12.097Z,43
2019-02-26T00:47:51.341Z,43
2019-02-26T00:48:46.671Z,43
2019-02-26T00:49:33.797Z,43
2019-02-26T00:50:21.141Z,42.9
2019-02-26T00:51:09.669Z,42.9
2019-02-26T00:52:00.019Z,42.9
2019-02-26T00:52:52.122Z,42.9
2019-02-26T00:53:39.575Z,42.9
2019-02-26T00:54:40.476Z,42.9
2019-02-26T00:55:27.266Z,42.9
2019-02-26T00:56:14.894Z,42.9
2019-02-26T00:57:17.051Z,42.8
2019-02-26T00:57:50.199Z,42.8
2019-02-26T00:58:53.458Z,42.8
2019-02-26T00:59:30.581Z,42.8
2019-02-26T01:00:20.601Z,42.8
2019-02-26T01:01:25.901Z,42.8
2019-02-26T01:02:03.941Z,42.8
2019-02-26T01:02:49.987Z,42.8
2019-02-26T01:03:52.411Z,42.8
2019-02-26T01:04:30.911Z,42.7
2019-02-26T01:05:21.007Z,42.7
2019-02-26T01:06:13.253Z,42.7
2019-02-26T01:07:10.700Z,42.7
2019-02-26T01:07:58.419Z,42.7
2019-02-26T01:08:50.461Z,42.6
2019-02-26T01:09:37.587Z,42.6
2019-02-26T01:10:27.483Z,42.6
2019-02-26T01:11:12.070Z,42.6
2019-02-26T01:12:00.898Z,42.6
2019-02-26T01:12:50.693Z,42.6
2019-02-26T01:13:41.018Z,42.6
2019-02-26T01:14:30.790Z,42.6
2019-02-26T01:15:20.865Z,42.6
2019-02-26T01:16:10.926Z,42.5
2019-02-26T01:17:01.230Z,42.5
2019-02-26T01:17:51.055Z,42.5
2019-02-26T01:18:47.072Z,42.4
2019-02-26T01:19:38.181Z,42.4
2019-02-26T01:20:34.225Z,42.4
2019-02-26T01:21:10.980Z,42.4
2019-02-26T01:22:01.293Z,42.4
2019-02-26T01:22:51.125Z,42.4
2019-02-26T01:23:40.872Z,42.4
2019-02-26T01:24:36.195Z,42.4
2019-02-26T01:25:26.672Z,42.3
2019-02-26T01:26:15.343Z,42.4
2019-02-26T01:27:02.195Z,42.3
2019-02-26T01:28:03.814Z,42.3
2019-02-26T01:29:02.872Z,42.3
2019-02-26T01:29:37.045Z,42.3
2019-02-26T01:30:39.144Z,42.3
2019-02-26T01:31:12.209Z,42.3
2019-02-26T01:32:04.233Z,42.3
2019-02-26T01:32:52.387Z,42.2
2019-02-26T01:33:42.594Z,42.2
2019-02-26T01:34:31.829Z,42.2
2019-02-26T01:35:22.719Z,42.2
2019-02-26T01:36:19.018Z,42.1
2019-02-26T01:37:13.895Z,42.1
2019-02-26T01:38:03.359Z,42.1
2019-02-26T01:38:55.870Z,42.1
2019-02-26T01:39:32.969Z,42.1
2019-02-26T01:40:29.405Z,42.1
2019-02-26T01:41:29.263Z,42.1
2019-02-26T01:42:03.116Z,42
2019-02-26T01:43:08.219Z,42.1
2019-02-26T01:43:42.504Z,42
2019-02-26T01:44:47.376Z,42
2019-02-26T01:45:35.209Z,42
2019-02-26T01:46:22.187Z,42
2019-02-26T01:47:08.964Z,42
2019-02-26T01:47:56.876Z,41.9
2019-02-26T01:48:45.111Z,42
2019-02-26T01:49:34.236Z,41.9
2019-02-26T01:50:24.266Z,41.9
2019-02-26T01:51:13.768Z,41.9
2019-02-26T01:52:03.858Z,41.9
2019-02-26T01:53:04.549Z,41.9
2019-02-26T01:53:56.133Z,41.9
2019-02-26T01:54:43.234Z,41.9
2019-02-26T01:55:31.225Z,41.9
2019-02-26T01:56:14.371Z,41.9
2019-02-26T01:57:04.183Z,41.8
2019-02-26T01:57:53.973Z,41.9
2019-02-26T01:58:44.550Z,42.1
2019-02-26T01:59:38.940Z,42.4
2019-02-26T02:00:28.746Z,42.7
2019-02-26T02:01:29.138Z,43
2019-02-26T02:02:05.212Z,43.3
2019-02-26T02:02:55.118Z,43.6
2019-02-26T02:03:57.349Z,43.7
2019-02-26T02:04:46.638Z,44
2019-02-26T02:05:35.114Z,44.2
2019-02-26T02:06:21.947Z,44.4
2019-02-26T02:07:10.320Z,44.6
2019-02-26T02:07:59.833Z,44.7
2019-02-26T02:08:58.420Z,44.8
2019-02-26T02:09:35.288Z,44.9
2019-02-26T02:10:24.815Z,45.1
2019-02-26T02:11:15.430Z,45.2
2019-02-26T02:12:14.778Z,45.3
2019-02-26T02:13:13.373Z,45.4
2019-02-26T02:13:48.360Z,45.5
2019-02-26T02:14:35.927Z,45.6
2019-02-26T02:15:28.045Z,45.6
2019-02-26T02:16:14.934Z,45.7
2019-02-26T02:17:17.368Z,45.7
2019-02-26T02:18:07.165Z,45.8
2019-02-26T02:19:02.077Z,45.8
2019-02-26T02:19:37.950Z,45.8
2019-02-26T02:20:26.414Z,45.8
2019-02-26T02:21:15.537Z,45.9
2019-02-26T02:22:05.877Z,45.9
2019-02-26T02:23:07.646Z,45.9
2019-02-26T02:23:55.219Z,45.9
2019-02-26T02:24:53.812Z,46
2019-02-26T02:25:38.613Z,46.1
2019-02-26T02:26:20.410Z,46.1
2019-02-26T02:27:06.227Z,46.1
2019-02-26T02:28:07.742Z,46.2
2019-02-26T02:28:46.880Z,46.2
2019-02-26T02:29:36.699Z,46.3
2019-02-26T02:30:42.377Z,46.3
2019-02-26T02:31:16.254Z,46.3
2019-02-26T02:32:11.837Z,46.3
2019-02-26T02:33:06.383Z,46.3
2019-02-26T02:33:46.409Z,46.3
2019-02-26T02:34:47.007Z,46.3
2019-02-26T02:35:26.821Z,46.4
2019-02-26T02:36:30.281Z,46.4
2019-02-26T02:37:06.971Z,46.5
2019-02-26T02:38:08.872Z,46.6
2019-02-26T02:38:47.031Z,46.6
2019-02-26T02:39:36.797Z,46.7
2019-02-26T02:40:27.767Z,46.7
2019-02-26T02:41:16.676Z,46.7
2019-02-26T02:42:12.902Z,46.7
2019-02-26T02:42:57.603Z,46.7
2019-02-26T02:43:47.661Z,46.8
2019-02-26T02:44:41.283Z,46.8
2019-02-26T02:45:27.266Z,46.8
2019-02-26T02:46:17.031Z,46.8
2019-02-26T02:47:15.366Z,46.8
2019-02-26T02:48:16.696Z,46.8
2019-02-26T02:48:48.055Z,46.8
2019-02-26T02:49:48.301Z,46.8
2019-02-26T02:50:28.386Z,46.8
2019-02-26T02:51:18.216Z,46.8
2019-02-26T02:52:15.456Z,46.8
2019-02-26T02:53:07.852Z,46.8
2019-02-26T02:54:02.411Z,46.8
2019-02-26T02:54:47.005Z,46.8
2019-02-26T02:55:28.204Z,46.8
2019-02-26T02:56:22.029Z,46.7
2019-02-26T02:57:14.289Z,46.8
2019-02-26T02:58:04.534Z,46.8
2019-02-26T02:58:55.465Z,46.8
2019-02-26T02:59:45.848Z,46.9
2019-02-26T03:00:38.000Z,46.9
2019-02-26T03:01:31.915Z,46.9
2019-02-26T03:02:22.970Z,46.9
2019-02-26T03:03:02.640Z,46.9
2019-02-26T03:04:03.856Z,46.9
2019-02-26T03:04:39.475Z,46.9
2019-02-26T03:08:01.003Z,46.9
2019-02-26T03:08:56.966Z,46.9
2019-02-26T03:09:49.225Z,46.9
2019-02-26T03:10:47.710Z,46.9
2019-02-26T03:11:16.112Z,46.9
2019-02-26T03:12:06.200Z,46.9
2019-02-26T03:13:06.625Z,46.9
2019-02-26T03:13:57.559Z,47
2019-02-26T03:14:47.987Z,47
2019-02-26T03:15:39.724Z,47
2019-02-26T03:16:30.465Z,47.1
2019-02-26T03:17:21.739Z,47.1
2019-02-26T03:17:57.409Z,47.1
2019-02-26T03:18:46.352Z,47.1
2019-02-26T03:19:47.319Z,47.1
2019-02-26T03:20:43.360Z,47.1
2019-02-26T03:21:31.679Z,47.1
2019-02-26T03:22:21.749Z,47.1
2019-02-26T03:22:57.773Z,47.1
2019-02-26T03:23:50.567Z,47.1
2019-02-26T03:24:40.617Z,47.1
2019-02-26T03:25:33.609Z,47.1
2019-02-26T03:26:30.954Z,47.1
2019-02-26T03:27:07.738Z,47.1
2019-02-26T03:27:57.791Z,47.1
2019-02-26T03:28:57.601Z,47
2019-02-26T03:29:38.194Z,47
2019-02-26T03:30:48.524Z,47
2019-02-26T03:31:18.090Z,47
2019-02-26T03:32:08.381Z,47
2019-02-26T03:33:09.749Z,47
2019-02-26T03:33:48.094Z,47
2019-02-26T03:34:38.436Z,47
2019-02-26T03:35:28.963Z,47
2019-02-26T03:36:23.603Z,46.9
2019-02-26T03:37:15.090Z,46.9
2019-02-26T03:38:07.595Z,46.9
2019-02-26T03:39:05.874Z,46.9
2019-02-26T03:39:38.293Z,46.9
2019-02-26T03:40:39.516Z,46.9
2019-02-26T03:41:33.474Z,46.9
2019-02-26T03:42:21.453Z,46.9
2019-02-26T03:42:58.790Z,46.9
2019-02-26T03:43:48.600Z,46.9
2019-02-26T03:44:38.923Z,46.9
2019-02-26T03:45:30.260Z,46.9
2019-02-26T03:46:19.361Z,46.9
2019-02-26T03:47:08.603Z,46.8
2019-02-26T03:48:03.003Z,46.8
2019-02-26T03:48:48.645Z,46.8
2019-02-26T03:49:43.861Z,46.8
2019-02-26T03:50:31.930Z,46.8
2019-02-26T03:51:22.920Z,46.8
2019-02-26T03:52:09.185Z,46.8
2019-02-26T03:52:59.554Z,46.8
2019-02-26T03:53:49.262Z,46.8
2019-02-26T03:54:54.120Z,46.8
2019-02-26T03:55:43.937Z,46.8
2019-02-26T03:56:25.044Z,46.7
2019-02-26T03:57:25.454Z,46.7
2019-02-26T03:58:06.558Z,46.7
2019-02-26T03:59:11.673Z,46.7
2019-02-26T03:59:39.392Z,46.7
2019-02-26T04:00:37.474Z,46.7
2019-02-26T04:01:26.450Z,46.7
2019-02-26T04:02:26.072Z,46.7
2019-02-26T04:03:00.445Z,46.6
2019-02-26T04:03:49.122Z,46.6
2019-02-26T04:04:40.564Z,46.6
2019-02-26T04:05:30.595Z,46.6
2019-02-26T04:06:19.839Z,46.5
2019-02-26T04:07:15.119Z,46.5
2019-02-26T04:08:08.882Z,46.5
2019-02-26T04:08:59.974Z,46.5
2019-02-26T04:10:01.200Z,46.5
2019-02-26T04:10:30.959Z,46.6
2019-02-26T04:11:31.662Z,46.6
2019-02-26T04:12:23.951Z,46.6
2019-02-26T04:13:03.212Z,46.6
2019-02-26T04:14:00.467Z,46.6
2019-02-26T04:14:41.002Z,46.6
2019-02-26T04:15:41.756Z,46.6
2019-02-26T04:16:20.509Z,46.6
2019-02-26T04:17:13.774Z,46.6
2019-02-26T04:18:01.196Z,46.5
2019-02-26T04:18:56.032Z,46.4
2019-02-26T04:19:45.890Z,46.4
2019-02-26T04:20:33.231Z,46.3
2019-02-26T04:21:26.117Z,46.3
2019-02-26T04:22:27.202Z,46.3
2019-02-26T04:23:02.279Z,46.3
2019-02-26T04:23:51.091Z,46.3
2019-02-26T04:24:42.141Z,46.3
2019-02-26T04:25:40.304Z,46.3
2019-02-26T04:26:37.648Z,46.3
2019-02-26T04:27:11.863Z,46.3
2019-02-26T04:28:13.530Z,46.3
2019-02-26T04:28:52.666Z,46.3
2019-02-26T04:29:53.282Z,46.3
2019-02-26T04:30:53.878Z,46.2
2019-02-26T04:31:22.140Z,46.2
2019-02-26T04:32:25.701Z,46.2
2019-02-26T04:33:15.109Z,46.1
2019-02-26T04:34:05.166Z,46.1
2019-02-26T04:34:42.335Z,46.1
2019-02-26T04:35:32.678Z,46.1
2019-02-26T04:36:27.291Z,46.1
2019-02-26T04:37:17.135Z,46
2019-02-26T04:38:10.690Z,46
2019-02-26T04:38:59.955Z,46
2019-02-26T04:39:52.072Z,46
2019-02-26T04:40:44.415Z,45.9
2019-02-26T04:41:22.843Z,45.9
2019-02-26T04:42:23.966Z,45.9
2019-02-26T04:43:16.087Z,45.9
2019-02-26T04:44:08.205Z,45.9
2019-02-26T04:44:43.014Z,45.9
2019-02-26T04:45:33.365Z,45.8
2019-02-26T04:46:28.106Z,45.9
2019-02-26T04:47:13.535Z,45.8
2019-02-26T04:48:05.422Z,45.8
2019-02-26T04:48:53.293Z,45.8
2019-02-26T04:49:47.785Z,45.8
2019-02-26T04:50:47.761Z,45.8
2019-02-26T04:51:23.793Z,45.8
2019-02-26T04:52:22.144Z,45.8
2019-02-26T04:53:14.875Z,45.7
2019-02-26T04:54:04.789Z,45.7
2019-02-26T04:54:44.502Z,45.7
2019-02-26T04:55:48.191Z,45.7
2019-02-26T04:56:23.085Z,45.6
2019-02-26T04:57:13.669Z,45.6
2019-02-26T04:58:04.027Z,45.6
2019-02-26T04:58:54.266Z,45.6
2019-02-26T04:59:48.267Z,45.6
2019-02-26T05:00:42.864Z,45.6
2019-02-26T05:01:24.405Z,45.6
2019-02-26T05:02:14.241Z,45.6
2019-02-26T05:03:20.063Z,45.5
2019-02-26T05:03:54.073Z,45.5
2019-02-26T05:04:47.333Z,45.5
2019-02-26T05:05:41.768Z,45.4
2019-02-26T05:06:24.536Z,45.4
2019-02-26T05:07:23.816Z,45.4
2019-02-26T05:08:18.868Z,45.3
2019-02-26T05:09:08.621Z,45.3
2019-02-26T05:09:44.726Z,45.3
2019-02-26T05:10:38.913Z,45.3
2019-02-26T05:11:45.070Z,45.3
2019-02-26T05:12:15.183Z,45.2
2019-02-26T05:13:13.799Z,45.2
2019-02-26T05:13:55.325Z,45.2
2019-02-26T05:14:45.364Z,45.2
2019-02-26T05:15:38.515Z,45.1
2019-02-26T05:16:42.037Z,45.1
2019-02-26T05:17:15.000Z,45.1
2019-02-26T05:18:05.353Z,45.1
2019-02-26T05:19:02.793Z,45.1
2019-02-26T05:19:55.891Z,45
2019-02-26T05:20:51.974Z,44.9
2019-02-26T05:21:39.388Z,44.9
2019-02-26T05:22:15.613Z,44.9
2019-02-26T05:23:10.852Z,44.9
2019-02-26T05:24:06.177Z,44.9
2019-02-26T05:24:56.730Z,44.8
2019-02-26T05:25:47.700Z,44.8
2019-02-26T05:26:26.238Z,44.8
2019-02-26T05:27:28.687Z,44.8
2019-02-26T05:28:20.175Z,44.7
2019-02-26T05:28:56.425Z,44.6
2019-02-26T05:29:58.281Z,44.6
2019-02-26T05:30:43.684Z,44.6
2019-02-26T05:31:26.235Z,44.6
2019-02-26T05:32:16.268Z,44.5
2019-02-26T05:33:10.448Z,44.5
2019-02-26T05:34:04.493Z,44.4
2019-02-26T05:34:54.741Z,44.4
2019-02-26T05:35:43.694Z,44.4
2019-02-26T05:36:34.256Z,44.4
2019-02-26T05:37:18.947Z,44.4
2019-02-26T05:38:13.862Z,44.4
2019-02-26T05:39:06.044Z,44.3
2019-02-26T05:39:58.346Z,44.3
2019-02-26T05:40:57.122Z,44.3
2019-02-26T05:41:26.105Z,44.3
2019-02-26T05:42:16.484Z,44.2
2019-02-26T05:43:11.214Z,44.2
2019-02-26T05:44:13.356Z,44.2
2019-02-26T05:44:46.731Z,44.2
2019-02-26T05:45:39.810Z,44.1
2019-02-26T05:46:33.154Z,44.1
2019-02-26T05:47:29.653Z,44.1
2019-02-26T05:48:06.863Z,44.1
2019-02-26T05:48:57.114Z,44.1
2019-02-26T05:49:50.615Z,44
2019-02-26T05:50:48.845Z,44
2019-02-26T05:51:41.282Z,44
2019-02-26T05:52:17.914Z,44
2019-02-26T05:53:17.238Z,43.9
2019-02-26T05:54:07.625Z,43.9
2019-02-26T05:54:46.977Z,43.9
2019-02-26T05:55:38.117Z,43.9
2019-02-26T05:56:28.315Z,43.8
2019-02-26T05:57:37.377Z,43.8
2019-02-26T05:58:22.543Z,43.8
2019-02-26T05:59:09.460Z,43.8
2019-02-26T05:59:48.211Z,43.8
2019-02-26T06:00:38.537Z,43.8
2019-02-26T06:01:32.305Z,43.7
2019-02-26T06:02:29.020Z,43.7
2019-02-26T06:03:22.225Z,43.7
2019-02-26T06:03:58.223Z,43.6
2019-02-26T06:06:04.587Z,43.6
2019-02-26T06:06:46.075Z,43.6
2019-02-26T06:07:43.147Z,43.5
2019-02-26T06:08:44.580Z,43.5
2019-02-26T06:09:16.799Z,43.5
2019-02-26T06:10:06.605Z,43.5
2019-02-26T06:10:56.373Z,43.4
2019-02-26T06:11:54.852Z,43.4
2019-02-26T06:12:50.149Z,43.4
2019-02-26T06:13:31.500Z,43.4
2019-02-26T06:14:18.136Z,43.4
2019-02-26T06:15:12.424Z,43.3
2019-02-26T06:16:10.611Z,43.3
2019-02-26T06:16:59.381Z,43.3
2019-02-26T06:17:57.748Z,43.3
2019-02-26T06:18:27.165Z,43.3
2019-02-26T06:19:21.941Z,43.2
2019-02-26T06:20:15.052Z,43.2
2019-02-26T06:21:05.194Z,43.2
2019-02-26T06:21:59.789Z,43.2
2019-02-26T06:22:39.946Z,43.1
2019-02-26T06:23:44.636Z,43.1
2019-02-26T06:24:32.961Z,43.1
2019-02-26T06:25:28.744Z,43.1
2019-02-26T06:26:20.726Z,43
2019-02-26T06:26:50.593Z,43
2019-02-26T06:27:41.284Z,43
2019-02-26T06:28:38.412Z,43
2019-02-26T06:29:39.879Z,42.9
2019-02-26T06:30:17.293Z,42.9
2019-02-26T06:31:01.718Z,42.9
2019-02-26T06:31:54.317Z,42.9
2019-02-26T06:32:49.245Z,42.9
2019-02-26T06:33:52.933Z,42.8
2019-02-26T06:34:26.668Z,42.8
2019-02-26T06:35:22.902Z,42.8
2019-02-26T06:36:10.345Z,42.8
2019-02-26T06:36:57.382Z,42.8
2019-02-26T06:37:44.421Z,42.8
2019-02-26T06:38:38.886Z,42.7
2019-02-26T06:39:38.396Z,42.7
2019-02-26T06:40:12.257Z,42.7
2019-02-26T06:41:01.547Z,42.6
2019-02-26T06:41:55.317Z,42.6
2019-02-26T06:42:45.037Z,42.6
2019-02-26T06:43:55.711Z,42.6
2019-02-26T06:44:22.577Z,42.6
2019-02-26T06:45:21.039Z,42.6
2019-02-26T06:46:16.127Z,42.6
2019-02-26T06:46:52.252Z,42.5
2019-02-26T06:47:41.582Z,42.5
2019-02-26T06:48:36.615Z,42.4
2019-02-26T06:49:32.447Z,42.4
2019-02-26T06:50:22.559Z,42.4
2019-02-26T06:51:10.995Z,42.4
2019-02-26T06:51:58.399Z,42.4
2019-02-26T06:52:53.599Z,42.4
2019-02-26T06:53:32.930Z,42.4
2019-02-26T06:54:35.236Z,42.4
2019-02-26T06:55:13.304Z,42.3
2019-02-26T06:56:05.822Z,42.3
2019-02-26T06:56:57.629Z,42.3
2019-02-26T06:57:58.266Z,42.3
2019-02-26T06:58:33.264Z,42.3
2019-02-26T06:59:23.014Z,42.2
2019-02-26T07:00:12.866Z,42.2
2019-02-26T07:01:02.991Z,42.2
2019-02-26T07:01:57.211Z,42.2
2019-02-26T07:02:48.091Z,42.1
2019-02-26T07:03:33.376Z,42.1
2019-02-26T07:05:55.729Z,42.1
2019-02-26T07:06:45.857Z,42.1
2019-02-26T07:07:36.627Z,42
2019-02-26T07:08:34.834Z,42
2019-02-26T07:09:24.943Z,42
2019-02-26T07:10:06.860Z,41.9
2019-02-26T07:10:56.906Z,41.9
2019-02-26T07:11:46.608Z,41.9
2019-02-26T07:12:41.123Z,41.9
2019-02-26T07:13:26.520Z,41.9
2019-02-26T07:14:16.793Z,41.8
2019-02-26T07:15:06.858Z,41.8
2019-02-26T07:15:57.168Z,41.8
2019-02-26T07:16:46.718Z,41.8
2019-02-26T07:17:49.584Z,48.3
2019-02-26T07:18:27.070Z,52.3
2019-02-26T07:19:20.961Z,51.6
2019-02-26T07:20:08.355Z,51.1
2019-02-26T07:21:04.748Z,51.8
2019-02-26T07:21:56.307Z,53.7
2019-02-26T07:22:39.669Z,54.2
2019-02-26T07:23:40.341Z,54.3
2019-02-26T07:24:29.723Z,53.7
2019-02-26T07:25:20.375Z,53.1
2019-02-26T07:25:57.835Z,52.5
2019-02-26T07:26:53.178Z,52.1
2019-02-26T07:27:42.705Z,51.6
2019-02-26T07:28:31.505Z,51.3
2019-02-26T07:29:22.637Z,50.9
2019-02-26T07:30:08.177Z,50.5
2019-02-26T07:30:57.607Z,50.3
2019-02-26T07:31:59.930Z,50
2019-02-26T07:32:50.351Z,49.8
2019-02-26T07:33:40.610Z,49.5
2019-02-26T07:34:29.860Z,49.3
2019-02-26T07:35:20.337Z,49.1
2019-02-26T07:36:08.119Z,48.9
2019-02-26T07:36:56.227Z,48.8
2019-02-26T07:37:44.754Z,48.6
2019-02-26T07:38:46.485Z,48.4
2019-02-26T07:39:26.982Z,48.2
2019-02-26T07:40:21.852Z,48.1
2019-02-26T07:41:09.752Z,47.9
2019-02-26T07:41:58.177Z,47.8
2019-02-26T07:42:52.784Z,47.7
2019-02-26T07:43:28.474Z,47.6
2019-02-26T07:44:32.154Z,47.4
2019-02-26T07:45:34.156Z,47.3
2019-02-26T07:45:59.199Z,47.2
2019-02-26T07:46:50.224Z,47.1
2019-02-26T07:47:41.673Z,47.5
2019-02-26T07:48:37.794Z,53.1
2019-02-26T07:49:21.515Z,52.1
2019-02-26T07:50:20.931Z,52.8
2019-02-26T07:50:59.508Z,55.1
2019-02-26T07:51:49.013Z,55.6
2019-02-26T07:52:39.329Z,55.2
2019-02-26T07:53:29.412Z,54.6
2019-02-26T07:54:19.448Z,54.1
2019-02-26T07:55:20.581Z,53.5
2019-02-26T07:56:11.883Z,52.7
2019-02-26T07:56:59.599Z,52.3
2019-02-26T07:57:50.661Z,51.8
2019-02-26T07:58:38.462Z,51.3
2019-02-26T07:59:47.497Z,50.8
2019-02-26T08:00:10.148Z,50.3
2019-02-26T08:01:00.031Z,50.2
2019-02-26T08:01:54.521Z,49.9
2019-02-26T08:02:42.313Z,51.7
2019-02-26T08:03:34.021Z,53.4
2019-02-26T08:04:23.353Z,52.8
2019-02-26T08:05:10.468Z,54.7
2019-02-26T08:06:15.096Z,56.6
2019-02-26T08:06:54.769Z,57.1
2019-02-26T08:07:40.369Z,56.9
2019-02-26T08:08:30.443Z,56.4
2019-02-26T08:09:27.582Z,56.1
2019-02-26T08:10:22.796Z,56.1
2019-02-26T08:11:00.605Z,56.2
2019-02-26T08:11:53.684Z,56.3
2019-02-26T08:12:47.104Z,56.6
2019-02-26T08:13:40.305Z,56.8
2019-02-26T08:14:29.027Z,56.8
2019-02-26T08:15:19.670Z,56.8
2019-02-26T08:16:09.152Z,56.8
2019-02-26T08:17:08.932Z,56.8
2019-02-26T08:17:41.030Z,56.7
2019-02-26T08:18:31.354Z,56.5
2019-02-26T08:19:21.127Z,56.4
2019-02-26T08:20:18.740Z,56.4
2019-02-26T08:21:09.154Z,56.4
2019-02-26T08:22:01.020Z,56.5
2019-02-26T08:22:41.400Z,56.5
2019-02-26T08:23:31.530Z,56.6
2019-02-26T08:24:29.255Z,56.7
2019-02-26T08:25:11.815Z,56.7
2019-02-26T08:26:06.879Z,56.6
2019-02-26T08:26:54.425Z,56.6
2019-02-26T08:27:43.036Z,56.6
2019-02-26T08:28:31.764Z,56.7
2019-02-26T08:29:23.948Z,56.6
2019-02-26T08:30:26.104Z,56.4
2019-02-26T08:31:02.707Z,56.2
2019-02-26T08:32:04.706Z,56.1
2019-02-26T08:32:56.072Z,56.1
2019-02-26T08:33:32.469Z,56.4
2019-02-26T08:34:22.429Z,56.5
2019-02-26T08:35:12.481Z,56.8
2019-02-26T08:36:02.269Z,57.1
2019-02-26T08:36:52.306Z,57.3
2019-02-26T08:37:42.711Z,57.4
2019-02-26T08:38:35.226Z,57.5
2019-02-26T08:39:22.196Z,57.5
2019-02-26T08:40:15.449Z,57.5
2019-02-26T08:41:02.619Z,57.5
2019-02-26T08:41:52.661Z,57.5
2019-02-26T08:42:42.721Z,57.6
2019-02-26T08:43:32.830Z,57.7
2019-02-26T08:45:26.666Z,57.9
2019-02-26T08:46:02.657Z,58.1
2019-02-26T08:46:54.393Z,58.2
2019-02-26T08:47:42.283Z,58.3
2019-02-26T08:48:33.361Z,58.4
2019-02-26T08:50:19.156Z,58.6
2019-02-26T08:51:24.271Z,58.8
2019-02-26T08:51:53.622Z,58.9
2019-02-26T08:52:52.976Z,58.9
2019-02-26T08:53:36.218Z,59
2019-02-26T08:54:38.826Z,59.1
2019-02-26T08:55:27.723Z,59.2
2019-02-26T08:56:10.618Z,59.3
2019-02-26T08:56:53.950Z,59.3
2019-02-26T08:57:43.710Z,59.4
2019-02-26T08:58:33.303Z,59.5
2019-02-26T08:59:25.218Z,59.6
2019-02-26T09:00:13.965Z,59.6
2019-02-26T09:01:03.941Z,59.7
2019-02-26T09:01:53.975Z,59.8
2019-02-26T09:02:59.812Z,59.8
2019-02-26T09:03:43.984Z,59.9
2019-02-26T09:04:28.463Z,60
2019-02-26T09:05:17.194Z,60.1
2019-02-26T09:06:20.475Z,60.1
2019-02-26T09:07:05.785Z,60.3
2019-02-26T09:07:54.153Z,60.3
2019-02-26T09:08:46.282Z,60.3
2019-02-26T09:09:36.288Z,60.4
2019-02-26T09:10:26.701Z,60.4
2019-02-26T09:11:17.467Z,60.5
2019-02-26T09:12:05.849Z,60.6
2019-02-26T09:12:55.859Z,60.6
2019-02-26T09:13:47.719Z,60.7
2019-02-26T09:14:24.850Z,60.8
2019-02-26T09:15:17.282Z,60.9
2019-02-26T09:16:11.718Z,60.9
2019-02-26T09:17:07.599Z,61
2019-02-26T09:17:47.439Z,61.1
2019-02-26T09:18:44.588Z,61.1
2019-02-26T09:19:40.114Z,61.1
2019-02-26T09:20:19.609Z,61.1
2019-02-26T09:21:09.616Z,61.2
2019-02-26T09:21:59.250Z,61.3
2019-02-26T09:23:04.470Z,61.3
2019-02-26T09:23:37.581Z,61.4
2019-02-26T09:24:25.846Z,61.4
2019-02-26T09:25:15.644Z,61.5
2019-02-26T09:26:11.601Z,61.6
2019-02-26T09:27:08.179Z,61.6
2019-02-26T09:27:48.406Z,61.7
2019-02-26T09:28:37.469Z,61.7
2019-02-26T09:29:27.116Z,61.8
2019-02-26T09:30:21.081Z,61.9
2019-02-26T09:31:16.906Z,61.9
2019-02-26T09:31:56.031Z,61.9
2019-02-26T09:32:49.326Z,62
2019-02-26T09:33:48.923Z,62.1
2019-02-26T09:34:42.434Z,62.2
2019-02-26T09:35:33.708Z,62.3
2019-02-26T09:36:10.455Z,62.3
2019-02-26T09:37:10.949Z,62.3
2019-02-26T09:38:03.914Z,62.4
2019-02-26T09:38:36.744Z,62.4
2019-02-26T09:39:36.383Z,62.5
2019-02-26T09:40:34.122Z,62.6
2019-02-26T09:41:05.885Z,62.6
2019-02-26T09:42:09.003Z,62.7
2019-02-26T09:43:03.150Z,62.8
2019-02-26T09:43:48.996Z,62.7
2019-02-26T09:44:39.306Z,62.7
2019-02-26T09:45:31.758Z,62.6
2019-02-26T09:46:22.470Z,62.4
2019-02-26T09:47:09.658Z,62.3
2019-02-26T09:48:02.669Z,62.3
2019-02-26T09:48:49.558Z,62.1
2019-02-26T09:49:38.723Z,62.1
2019-02-26T09:50:26.810Z,62.2
2019-02-26T09:51:19.507Z,62.3
2019-02-26T09:52:09.842Z,62.4
2019-02-26T09:53:01.003Z,62.5
2019-02-26T09:53:37.753Z,62.5
2019-02-26T09:54:27.972Z,62.6
2019-02-26T09:55:17.858Z,62.6
2019-02-26T09:56:07.922Z,62.7
2019-02-26T09:56:57.699Z,62.7
2019-02-26T09:57:46.715Z,62.8
2019-02-26T09:58:51.783Z,62.8
2019-02-26T09:59:39.942Z,62.9
2019-02-26T10:00:32.760Z,63
2019-02-26T10:01:19.619Z,63.1
2019-02-26T10:02:09.206Z,63.1
2019-02-26T10:02:55.612Z,63.1
2019-02-26T10:03:45.364Z,63.2
2019-02-26T10:04:33.113Z,63.3
2019-02-26T10:06:55.621Z,63.4
2019-02-26T10:07:45.646Z,63.6
2019-02-26T10:08:35.419Z,63.6
2019-02-26T10:09:25.844Z,63.6
2019-02-26T10:10:18.349Z,63.7
2019-02-26T10:11:09.534Z,63.8
2019-02-26T10:11:56.641Z,63.9
2019-02-26T10:12:45.984Z,63.9
2019-02-26T10:13:36.354Z,64
2019-02-26T10:14:38.617Z,64.1
2019-02-26T10:15:15.586Z,64.1
2019-02-26T10:16:12.876Z,64.1
2019-02-26T10:17:00.802Z,64.1
2019-02-26T10:17:49.059Z,64.1
2019-02-26T10:18:37.631Z,64.1
2019-02-26T10:19:26.200Z,64.1
2019-02-26T10:20:23.167Z,64.2
2019-02-26T10:21:21.396Z,64.4
2019-02-26T10:22:13.689Z,64.4
2019-02-26T10:22:47.411Z,64.4
2019-02-26T10:23:37.359Z,64.4
2019-02-26T10:24:42.939Z,64.4
2019-02-26T10:25:23.231Z,64.1
2019-02-26T10:26:15.088Z,63.8
2019-02-26T10:27:16.906Z,63.6
2019-02-26T10:27:51.748Z,63.4
2019-02-26T10:29:09.564Z,63.3
2019-02-26T10:29:27.591Z,63.6
2019-02-26T10:30:21.401Z,63.7
2019-02-26T10:31:14.209Z,63.8
2019-02-26T10:32:01.165Z,63.8
2019-02-26T10:32:52.096Z,63.5
2019-02-26T10:33:53.615Z,63.1
2019-02-26T10:34:35.000Z,62.8
2019-02-26T10:35:51.820Z,62.6
2019-02-26T10:36:21.372Z,62.3
2019-02-26T10:36:58.430Z,62.2
2019-02-26T10:37:49.020Z,62.2
2019-02-26T10:38:43.133Z,62.1
2019-02-26T10:39:34.594Z,61.9
2019-02-26T10:40:23.955Z,61.9
2019-02-26T10:41:12.305Z,61.9
2019-02-26T10:42:07.123Z,61.8
2019-02-26T10:42:51.883Z,61.7
2019-02-26T10:43:45.477Z,61.6
2019-02-26T10:44:33.220Z,61.4
2019-02-26T10:45:22.312Z,61.4
2019-02-26T10:46:12.672Z,61.3
2019-02-26T10:47:14.265Z,61.2
2019-02-26T10:48:05.355Z,61
2019-02-26T10:48:54.880Z,60.9
2019-02-26T10:49:34.152Z,60.8
2019-02-26T10:50:49.571Z,60.6
2019-02-26T10:51:13.014Z,60.4
2019-02-26T10:52:03.972Z,60.4
2019-02-26T10:53:22.631Z,60.3
2019-02-26T10:53:43.499Z,60.3
2019-02-26T10:54:49.760Z,60.3
2019-02-26T10:55:45.559Z,60.2
2019-02-26T10:56:13.604Z,60.1
2019-02-26T10:57:18.576Z,60.1
2019-02-26T10:58:13.919Z,60.2
2019-02-26T10:58:43.204Z,60.3
2019-02-26T10:59:34.049Z,60.3
2019-02-26T11:00:39.928Z,60.4
2019-02-26T11:01:13.942Z,60.6
2019-02-26T11:02:07.837Z,60.6
2019-02-26T11:02:59.282Z,60.8
2019-02-26T11:03:58.848Z,60.9
2019-02-26T11:04:58.364Z,61
2019-02-26T11:05:31.589Z,61.2
2019-02-26T11:06:23.630Z,61.3
2019-02-26T11:07:17.841Z,61.4
2019-02-26T11:08:11.696Z,61.6
2019-02-26T11:08:44.458Z,61.8
2019-02-26T11:09:37.150Z,61.9
2019-02-26T11:10:29.453Z,62
2019-02-26T11:11:23.219Z,62.1
2019-02-26T11:12:13.124Z,62.2
2019-02-26T11:13:04.105Z,62.3
2019-02-26T11:13:57.731Z,62.4
2019-02-26T11:14:47.669Z,62.4
2019-02-26T11:15:39.527Z,62.6
2019-02-26T11:16:39.530Z,62.6
2019-02-26T11:17:05.000Z,62.8
2019-02-26T11:18:00.394Z,62.8